Main page
METAR-TAF:

METAR-TAF

Airports :

Brescia Ghedi, Italy

Ghedi Air Base

latitude: 45-25N, longitude: 010-17E, elevation: 102 m

Current weather observation

The report was made 56 minutes ago, at 06:55 UTC
Temperature 26°C
Humidity 61%
Pressure 1019 hPa
Visibility 10 km or more
no clouds below 1500 m and no cumulonimbus

METAR: LIPL 170655Z /////KT CAVOK 26/18 Q1019 RMK FEW FEW200 VIS MIN 9999 WIND THR31 01001KT BLU

Time: 09:51 (07:51 UTC)

Forecast

The report was made 2 hours and 51 minutes ago, at 05:00 UTC
Forecast valid from 17 at 06 UTC to 17 at 15 UTC
Wind 4 kt from the East/Southeast
Visibility 10 km or more
Few clouds at a height of 7000 ft

TAF: LIPL 170500Z 1706/1715 11004KT 9999 FEW070

Weather observations and forecasts of more than 4000 airports (METAR and TAF reports).

The available stations are represented by yellow and red dots on the map.

Hover mouse over dot to see the name of the station.

Then click to see weather observations and forecasts.

To change the map : click on the green buttons with a black cross to zoom in, on the green button with a dash to zoom out, or on the green arrows for adjacent maps.


METAR-TAF: